sensor_id;sensor_type;location;lat;lon;timestamp;temperature;humidity
19387;DHT22;9829;48.142;16.382;2022-07-06T00:02:20;18.60;99.90
19387;DHT22;9829;48.142;16.382;2022-07-06T00:04:47;18.60;99.90
19387;DHT22;9829;48.142;16.382;2022-07-06T00:07:14;18.60;99.90
19387;DHT22;9829;48.142;16.382;2022-07-06T00:09:42;18.60;99.90
19387;DHT22;9829;48.142;16.382;2022-07-06T00:12:09;18.70;99.90
19387;DHT22;9829;48.142;16.382;2022-07-06T00:14:36;18.60;99.90
19387;DHT22;9829;48.142;16.382;2022-07-06T00:17:03;18.50;99.90
19387;DHT22;9829;48.142;16.382;2022-07-06T00:19:30;18.50;99.90
19387;DHT22;9829;48.142;16.382;2022-07-06T00:21:57;18.50;99.90
19387;DHT22;9829;48.142;16.382;2022-07-06T00:24:25;18.50;99.90
19387;DHT22;9829;48.142;16.382;2022-07-06T00:26:54;18.50;99.90
19387;DHT22;9829;48.142;16.382;2022-07-06T00:29:20;18.40;99.90
19387;DHT22;9829;48.142;16.382;2022-07-06T00:31:47;18.40;99.90
19387;DHT22;9829;48.142;16.382;2022-07-06T00:34:14;18.30;99.90
19387;DHT22;9829;48.142;16.382;2022-07-06T00:36:41;18.30;99.90
19387;DHT22;9829;48.142;16.382;2022-07-06T00:39:08;18.40;99.90
19387;DHT22;9829;48.142;16.382;2022-07-06T00:41:35;18.40;99.90
19387;DHT22;9829;48.142;16.382;2022-07-06T00:44:07;18.40;99.90
19387;DHT22;9829;48.142;16.382;2022-07-06T00:46:34;18.40;99.90
19387;DHT22;9829;48.142;16.382;2022-07-06T00:49:01;18.50;99.90
19387;DHT22;9829;48.142;16.382;2022-07-06T00:51:29;18.50;99.90
19387;DHT22;9829;48.142;16.382;2022-07-06T00:53:58;18.50;99.90
19387;DHT22;9829;48.142;16.382;2022-07-06T00:56:26;18.60;99.90
19387;DHT22;9829;48.142;16.382;2022-07-06T00:58:55;18.50;99.90
19387;DHT22;9829;48.142;16.382;2022-07-06T01:01:23;18.50;99.90
19387;DHT22;9829;48.142;16.382;2022-07-06T01:03:50;18.60;99.90
19387;DHT22;9829;48.142;16.382;2022-07-06T01:06:17;18.60;99.90
19387;DHT22;9829;48.142;16.382;2022-07-06T01:08:44;18.70;99.90
19387;DHT22;9829;48.142;16.382;2022-07-06T01:11:11;18.80;99.90
19387;DHT22;9829;48.142;16.382;2022-07-06T01:13:38;18.80;99.90
19387;DHT22;9829;48.142;16.382;2022-07-06T01:16:05;18.90;99.90
19387;DHT22;9829;48.142;16.382;2022-07-06T01:18:34;19.00;99.90
19387;DHT22;9829;48.142;16.382;2022-07-06T01:21:10;19.00;99.90
19387;DHT22;9829;48.142;16.382;2022-07-06T01:23:41;19.10;99.90
19387;DHT22;9829;48.142;16.382;2022-07-06T01:26:10;19.20;99.90
19387;DHT22;9829;48.142;16.382;2022-07-06T01:28:37;19.20;99.90
19387;DHT22;9829;48.142;16.382;2022-07-06T01:31:04;19.20;99.90
19387;DHT22;9829;48.142;16.382;2022-07-06T01:33:31;19.20;99.90
19387;DHT22;9829;48.142;16.382;2022-07-06T01:35:58;19.20;99.90
19387;DHT22;9829;48.142;16.382;2022-07-06T01:38:26;19.20;99.90
19387;DHT22;9829;48.142;16.382;2022-07-06T01:40:53;19.30;99.90
19387;DHT22;9829;48.142;16.382;2022-07-06T01:43:20;19.20;99.90
19387;DHT22;9829;48.142;16.382;2022-07-06T01:45:47;19.30;99.90
19387;DHT22;9829;48.142;16.382;2022-07-06T01:48:14;19.30;99.90
19387;DHT22;9829;48.142;16.382;2022-07-06T01:50:41;19.30;99.90
19387;DHT22;9829;48.142;16.382;2022-07-06T01:53:08;19.30;99.90
19387;DHT22;9829;48.142;16.382;2022-07-06T01:55:36;19.30;99.90
19387;DHT22;9829;48.142;16.382;2022-07-06T01:58:03;19.30;99.90
19387;DHT22;9829;48.142;16.382;2022-07-06T02:00:29;19.30;99.90
19387;DHT22;9829;48.142;16.382;2022-07-06T02:02:56;19.40;99.90
19387;DHT22;9829;48.142;16.382;2022-07-06T02:05:23;19.40;99.90
19387;DHT22;9829;48.142;16.382;2022-07-06T02:07:50;19.40;99.90
19387;DHT22;9829;48.142;16.382;2022-07-06T02:10:17;19.40;99.90
19387;DHT22;9829;48.142;16.382;2022-07-06T02:12:45;19.40;99.90
19387;DHT22;9829;48.142;16.382;2022-07-06T02:15:12;19.30;99.90
19387;DHT22;9829;48.142;16.382;2022-07-06T02:17:39;19.30;99.90
19387;DHT22;9829;48.142;16.382;2022-07-06T02:20:07;19.30;99.90
19387;DHT22;9829;48.142;16.382;2022-07-06T02:22:34;19.30;99.90
19387;DHT22;9829;48.142;16.382;2022-07-06T02:25:01;19.30;99.90
19387;DHT22;9829;48.142;16.382;2022-07-06T02:27:28;19.40;99.90
19387;DHT22;9829;48.142;16.382;2022-07-06T02:29:56;19.40;99.90
19387;DHT22;9829;48.142;16.382;2022-07-06T02:32:23;19.40;99.90
19387;DHT22;9829;48.142;16.382;2022-07-06T02:34:50;19.50;99.90
19387;DHT22;9829;48.142;16.382;2022-07-06T02:37:18;19.40;99.90
19387;DHT22;9829;48.142;16.382;2022-07-06T02:39:45;19.40;99.90
19387;DHT22;9829;48.142;16.382;2022-07-06T02:42:11;19.40;99.90
19387;DHT22;9829;48.142;16.382;2022-07-06T02:44:38;19.40;99.90
19387;DHT22;9829;48.142;16.382;2022-07-06T02:47:07;19.40;99.90
19387;DHT22;9829;48.142;16.382;2022-07-06T02:49:33;19.50;99.90
19387;DHT22;9829;48.142;16.382;2022-07-06T02:52:00;19.50;99.90
19387;DHT22;9829;48.142;16.382;2022-07-06T02:54:27;19.50;99.90
19387;DHT22;9829;48.142;16.382;2022-07-06T02:56:54;19.40;99.90
19387;DHT22;9829;48.142;16.382;2022-07-06T02:59:21;19.40;99.90
19387;DHT22;9829;48.142;16.382;2022-07-06T03:01:48;19.30;99.90
19387;DHT22;9829;48.142;16.382;2022-07-06T03:04:16;19.30;99.90
19387;DHT22;9829;48.142;16.382;2022-07-06T03:06:43;19.20;99.90
19387;DHT22;9829;48.142;16.382;2022-07-06T03:09:10;19.20;99.90
19387;DHT22;9829;48.142;16.382;2022-07-06T03:11:37;19.10;99.90
19387;DHT22;9829;48.142;16.382;2022-07-06T03:14:04;19.10;99.90
19387;DHT22;9829;48.142;16.382;2022-07-06T03:16:32;19.00;99.90
19387;DHT22;9829;48.142;16.382;2022-07-06T03:18:59;19.00;99.90
19387;DHT22;9829;48.142;16.382;2022-07-06T03:21:27;19.00;99.90
19387;DHT22;9829;48.142;16.382;2022-07-06T03:23:54;18.90;99.90
19387;DHT22;9829;48.142;16.382;2022-07-06T03:26:21;18.90;99.90
19387;DHT22;9829;48.142;16.382;2022-07-06T03:28:48;18.90;99.90
19387;DHT22;9829;48.142;16.382;2022-07-06T03:31:15;18.90;99.90
19387;DHT22;9829;48.142;16.382;2022-07-06T03:33:42;18.90;99.90
19387;DHT22;9829;48.142;16.382;2022-07-06T03:36:09;18.90;99.90
19387;DHT22;9829;48.142;16.382;2022-07-06T03:38:37;18.90;99.90
19387;DHT22;9829;48.142;16.382;2022-07-06T03:41:04;18.90;99.90
19387;DHT22;9829;48.142;16.382;2022-07-06T03:43:31;18.90;99.90
19387;DHT22;9829;48.142;16.382;2022-07-06T03:45:58;19.00;99.90
19387;DHT22;9829;48.142;16.382;2022-07-06T03:48:25;19.00;99.90
19387;DHT22;9829;48.142;16.382;2022-07-06T03:50:52;19.10;99.90
19387;DHT22;9829;48.142;16.382;2022-07-06T03:53:19;19.10;99.90
19387;DHT22;9829;48.142;16.382;2022-07-06T03:55:47;19.10;99.90
19387;DHT22;9829;48.142;16.382;2022-07-06T03:58:28;19.20;99.90
19387;DHT22;9829;48.142;16.382;2022-07-06T04:00:55;19.30;99.90
19387;DHT22;9829;48.142;16.382;2022-07-06T04:03:22;19.40;99.90
19387;DHT22;9829;48.142;16.382;2022-07-06T04:05:49;19.50;99.90
19387;DHT22;9829;48.142;16.382;2022-07-06T04:08:16;19.60;99.90
19387;DHT22;9829;48.142;16.382;2022-07-06T04:10:43;19.70;99.90
19387;DHT22;9829;48.142;16.382;2022-07-06T04:13:11;19.90;99.90
19387;DHT22;9829;48.142;16.382;2022-07-06T04:15:38;19.90;99.90
19387;DHT22;9829;48.142;16.382;2022-07-06T04:18:05;20.10;99.90
19387;DHT22;9829;48.142;16.382;2022-07-06T04:20:32;20.30;99.90
19387;DHT22;9829;48.142;16.382;2022-07-06T04:22:59;20.60;99.90
19387;DHT22;9829;48.142;16.382;2022-07-06T04:25:26;20.90;99.90
19387;DHT22;9829;48.142;16.382;2022-07-06T04:27:53;21.30;99.90
19387;DHT22;9829;48.142;16.382;2022-07-06T04:30:21;21.60;99.90
19387;DHT22;9829;48.142;16.382;2022-07-06T04:32:48;21.80;99.90
19387;DHT22;9829;48.142;16.382;2022-07-06T04:35:15;22.10;99.90
19387;DHT22;9829;48.142;16.382;2022-07-06T04:37:42;22.20;99.90
19387;DHT22;9829;48.142;16.382;2022-07-06T04:40:11;22.40;99.90
19387;DHT22;9829;48.142;16.382;2022-07-06T04:42:38;22.60;99.90
19387;DHT22;9829;48.142;16.382;2022-07-06T04:45:06;22.80;99.90
19387;DHT22;9829;48.142;16.382;2022-07-06T04:47:34;23.00;99.90
19387;DHT22;9829;48.142;16.382;2022-07-06T04:50:01;23.20;99.90
19387;DHT22;9829;48.142;16.382;2022-07-06T04:52:28;23.50;99.90
19387;DHT22;9829;48.142;16.382;2022-07-06T04:54:55;23.80;99.90
19387;DHT22;9829;48.142;16.382;2022-07-06T04:57:22;24.10;99.90
19387;DHT22;9829;48.142;16.382;2022-07-06T04:59:51;24.50;99.90
19387;DHT22;9829;48.142;16.382;2022-07-06T05:02:18;25.10;99.90
19387;DHT22;9829;48.142;16.382;2022-07-06T05:04:46;26.20;99.90
19387;DHT22;9829;48.142;16.382;2022-07-06T05:07:13;27.90;99.90
19387;DHT22;9829;48.142;16.382;2022-07-06T05:09:40;29.60;99.90
19387;DHT22;9829;48.142;16.382;2022-07-06T05:12:09;31.40;99.90
19387;DHT22;9829;48.142;16.382;2022-07-06T05:14:36;32.70;99.90
19387;DHT22;9829;48.142;16.382;2022-07-06T05:17:03;34.20;98.50
19387;DHT22;9829;48.142;16.382;2022-07-06T05:19:30;35.20;96.10
19387;DHT22;9829;48.142;16.382;2022-07-06T05:21:58;36.30;93.30
19387;DHT22;9829;48.142;16.382;2022-07-06T05:24:25;37.00;90.50
19387;DHT22;9829;48.142;16.382;2022-07-06T05:26:52;37.80;88.20
19387;DHT22;9829;48.142;16.382;2022-07-06T05:29:19;38.90;85.30
19387;DHT22;9829;48.142;16.382;2022-07-06T05:31:46;39.40;81.30
19387;DHT22;9829;48.142;16.382;2022-07-06T05:34:13;40.20;80.00
19387;DHT22;9829;48.142;16.382;2022-07-06T05:36:40;40.70;77.20
19387;DHT22;9829;48.142;16.382;2022-07-06T05:39:08;41.30;74.90
19387;DHT22;9829;48.142;16.382;2022-07-06T05:41:35;42.10;73.50
19387;DHT22;9829;48.142;16.382;2022-07-06T05:44:02;42.30;70.90
19387;DHT22;9829;48.142;16.382;2022-07-06T05:46:29;42.90;70.50
19387;DHT22;9829;48.142;16.382;2022-07-06T05:48:56;43.40;67.80
19387;DHT22;9829;48.142;16.382;2022-07-06T05:51:40;43.90;66.40
19387;DHT22;9829;48.142;16.382;2022-07-06T05:54:09;43.70;65.50
19387;DHT22;9829;48.142;16.382;2022-07-06T05:56:36;43.30;65.00
19387;DHT22;9829;48.142;16.382;2022-07-06T05:59:03;41.80;67.80
19387;DHT22;9829;48.142;16.382;2022-07-06T06:01:30;40.10;69.40
19387;DHT22;9829;48.142;16.382;2022-07-06T06:03:56;40.00;70.20
19387;DHT22;9829;48.142;16.382;2022-07-06T06:06:24;39.10;70.40
19387;DHT22;9829;48.142;16.382;2022-07-06T06:08:51;38.00;73.60
19387;DHT22;9829;48.142;16.382;2022-07-06T06:11:20;37.30;73.90
19387;DHT22;9829;48.142;16.382;2022-07-06T06:13:47;36.20;77.00
19387;DHT22;9829;48.142;16.382;2022-07-06T06:16:14;36.90;77.50
19387;DHT22;9829;48.142;16.382;2022-07-06T06:18:42;38.60;74.50
19387;DHT22;9829;48.142;16.382;2022-07-06T06:21:09;40.60;70.40
19387;DHT22;9829;48.142;16.382;2022-07-06T06:23:36;42.10;69.10
19387;DHT22;9829;48.142;16.382;2022-07-06T06:26:04;43.70;65.30
19387;DHT22;9829;48.142;16.382;2022-07-06T06:28:32;44.40;64.20
19387;DHT22;9829;48.142;16.382;2022-07-06T06:30:59;45.20;62.40
19387;DHT22;9829;48.142;16.382;2022-07-06T06:33:26;45.00;61.40
19387;DHT22;9829;48.142;16.382;2022-07-06T06:35:53;42.90;63.80
19387;DHT22;9829;48.142;16.382;2022-07-06T06:38:21;40.60;66.90
19387;DHT22;9829;48.142;16.382;2022-07-06T06:40:51;38.50;71.00
19387;DHT22;9829;48.142;16.382;2022-07-06T06:43:18;36.70;73.30
19387;DHT22;9829;48.142;16.382;2022-07-06T06:45:47;35.60;76.30
19387;DHT22;9829;48.142;16.382;2022-07-06T06:48:14;35.10;78.00
19387;DHT22;9829;48.142;16.382;2022-07-06T06:50:40;35.40;78.50
19387;DHT22;9829;48.142;16.382;2022-07-06T06:53:07;37.70;75.40
19387;DHT22;9829;48.142;16.382;2022-07-06T06:55:34;40.50;70.30
19387;DHT22;9829;48.142;16.382;2022-07-06T06:58:01;42.40;67.30
19387;DHT22;9829;48.142;16.382;2022-07-06T07:00:28;43.60;64.60
19387;DHT22;9829;48.142;16.382;2022-07-06T07:02:56;45.00;62.80
19387;DHT22;9829;48.142;16.382;2022-07-06T07:05:23;45.60;60.10
19387;DHT22;9829;48.142;16.382;2022-07-06T07:07:50;46.00;59.80
19387;DHT22;9829;48.142;16.382;2022-07-06T07:10:17;46.40;59.60
19387;DHT22;9829;48.142;16.382;2022-07-06T07:12:45;46.80;58.20
19387;DHT22;9829;48.142;16.382;2022-07-06T07:15:12;46.80;58.30
19387;DHT22;9829;48.142;16.382;2022-07-06T07:17:39;46.80;57.50
19387;DHT22;9829;48.142;16.382;2022-07-06T07:20:09;47.40;56.10
19387;DHT22;9829;48.142;16.382;2022-07-06T07:22:36;47.90;56.00
19387;DHT22;9829;48.142;16.382;2022-07-06T07:25:04;47.50;56.70
19387;DHT22;9829;48.142;16.382;2022-07-06T07:27:31;47.70;56.30
19387;DHT22;9829;48.142;16.382;2022-07-06T07:29:58;47.60;56.30
19387;DHT22;9829;48.142;16.382;2022-07-06T07:32:25;47.80;55.80
19387;DHT22;9829;48.142;16.382;2022-07-06T07:34:52;47.50;56.00
19387;DHT22;9829;48.142;16.382;2022-07-06T07:37:20;47.10;56.90
19387;DHT22;9829;48.142;16.382;2022-07-06T07:39:47;46.10;57.80
19387;DHT22;9829;48.142;16.382;2022-07-06T07:42:14;45.10;58.60
19387;DHT22;9829;48.142;16.382;2022-07-06T07:44:41;43.80;59.60
19387;DHT22;9829;48.142;16.382;2022-07-06T07:47:08;42.70;61.30
19387;DHT22;9829;48.142;16.382;2022-07-06T07:49:35;41.40;63.00
19387;DHT22;9829;48.142;16.382;2022-07-06T07:52:02;40.10;65.20
19387;DHT22;9829;48.142;16.382;2022-07-06T07:54:31;39.00;66.50
19387;DHT22;9829;48.142;16.382;2022-07-06T07:56:58;37.90;68.80
19387;DHT22;9829;48.142;16.382;2022-07-06T07:59:25;37.00;71.40
19387;DHT22;9829;48.142;16.382;2022-07-06T08:01:52;36.50;72.20
19387;DHT22;9829;48.142;16.382;2022-07-06T08:04:19;35.90;72.90
19387;DHT22;9829;48.142;16.382;2022-07-06T08:06:46;35.10;76.10
19387;DHT22;9829;48.142;16.382;2022-07-06T08:09:13;34.60;76.80
19387;DHT22;9829;48.142;16.382;2022-07-06T08:11:43;34.30;78.10
19387;DHT22;9829;48.142;16.382;2022-07-06T08:14:10;34.00;78.80
19387;DHT22;9829;48.142;16.382;2022-07-06T08:16:39;33.80;78.90
19387;DHT22;9829;48.142;16.382;2022-07-06T08:19:06;33.80;77.50
19387;DHT22;9829;48.142;16.382;2022-07-06T08:21:33;33.70;76.20
19387;DHT22;9829;48.142;16.382;2022-07-06T08:24:00;33.60;79.10
19387;DHT22;9829;48.142;16.382;2022-07-06T08:26:27;33.60;79.30
19387;DHT22;9829;48.142;16.382;2022-07-06T08:28:56;33.60;78.70
19387;DHT22;9829;48.142;16.382;2022-07-06T08:31:23;33.70;78.70
19387;DHT22;9829;48.142;16.382;2022-07-06T08:33:50;33.70;80.70
19387;DHT22;9829;48.142;16.382;2022-07-06T08:36:18;33.70;82.10
19387;DHT22;9829;48.142;16.382;2022-07-06T08:38:45;33.70;79.70
19387;DHT22;9829;48.142;16.382;2022-07-06T08:41:14;33.70;79.90
19387;DHT22;9829;48.142;16.382;2022-07-06T08:43:41;33.70;82.00
19387;DHT22;9829;48.142;16.382;2022-07-06T08:46:13;33.80;80.80
19387;DHT22;9829;48.142;16.382;2022-07-06T08:48:41;34.00;80.90
19387;DHT22;9829;48.142;16.382;2022-07-06T08:51:08;34.00;78.80
19387;DHT22;9829;48.142;16.382;2022-07-06T08:53:35;34.20;77.60
19387;DHT22;9829;48.142;16.382;2022-07-06T08:56:03;34.30;77.50
19387;DHT22;9829;48.142;16.382;2022-07-06T08:58:30;34.40;78.10
19387;DHT22;9829;48.142;16.382;2022-07-06T09:00:58;34.40;77.60
19387;DHT22;9829;48.142;16.382;2022-07-06T09:03:27;34.30;78.00
19387;DHT22;9829;48.142;16.382;2022-07-06T09:05:58;34.50;76.10
19387;DHT22;9829;48.142;16.382;2022-07-06T09:08:27;34.60;77.00
19387;DHT22;9829;48.142;16.382;2022-07-06T09:10:54;34.50;77.20
19387;DHT22;9829;48.142;16.382;2022-07-06T09:13:21;34.70;77.00
19387;DHT22;9829;48.142;16.382;2022-07-06T09:15:48;34.70;76.80
19387;DHT22;9829;48.142;16.382;2022-07-06T09:18:15;34.80;76.80
19387;DHT22;9829;48.142;16.382;2022-07-06T09:20:43;34.80;77.10
19387;DHT22;9829;48.142;16.382;2022-07-06T09:23:10;34.80;76.20
19387;DHT22;9829;48.142;16.382;2022-07-06T09:25:41;34.90;77.60
19387;DHT22;9829;48.142;16.382;2022-07-06T09:28:08;35.20;74.90
19387;DHT22;9829;48.142;16.382;2022-07-06T09:30:35;35.40;75.70
19387;DHT22;9829;48.142;16.382;2022-07-06T09:33:08;35.40;74.20
19387;DHT22;9829;48.142;16.382;2022-07-06T09:35:36;35.60;72.40
19387;DHT22;9829;48.142;16.382;2022-07-06T09:38:08;35.70;76.20
19387;DHT22;9829;48.142;16.382;2022-07-06T09:40:36;35.90;75.60
19387;DHT22;9829;48.142;16.382;2022-07-06T09:43:14;35.90;75.10
19387;DHT22;9829;48.142;16.382;2022-07-06T09:45:43;35.90;75.40
19387;DHT22;9829;48.142;16.382;2022-07-06T09:48:11;36.10;72.60
19387;DHT22;9829;48.142;16.382;2022-07-06T09:50:39;36.10;74.90
19387;DHT22;9829;48.142;16.382;2022-07-06T09:53:08;36.20;74.90
19387;DHT22;9829;48.142;16.382;2022-07-06T09:55:34;36.10;73.60
19387;DHT22;9829;48.142;16.382;2022-07-06T09:58:02;36.30;72.70
19387;DHT22;9829;48.142;16.382;2022-07-06T10:00:29;36.40;71.90
19387;DHT22;9829;48.142;16.382;2022-07-06T10:02:56;36.40;73.30
19387;DHT22;9829;48.142;16.382;2022-07-06T10:05:24;36.60;71.10
19387;DHT22;9829;48.142;16.382;2022-07-06T10:07:56;36.70;70.90
19387;DHT22;9829;48.142;16.382;2022-07-06T10:10:27;36.90;71.70
19387;DHT22;9829;48.142;16.382;2022-07-06T10:12:55;37.20;71.80
19387;DHT22;9829;48.142;16.382;2022-07-06T10:15:23;37.60;70.70
19387;DHT22;9829;48.142;16.382;2022-07-06T10:17:51;37.70;71.00
19387;DHT22;9829;48.142;16.382;2022-07-06T10:20:19;37.40;70.30
19387;DHT22;9829;48.142;16.382;2022-07-06T10:22:47;37.10;69.90
19387;DHT22;9829;48.142;16.382;2022-07-06T10:25:15;37.00;72.70
19387;DHT22;9829;48.142;16.382;2022-07-06T10:27:45;37.20;70.90
19387;DHT22;9829;48.142;16.382;2022-07-06T10:30:12;36.90;71.20
19387;DHT22;9829;48.142;16.382;2022-07-06T10:32:41;36.60;71.40
19387;DHT22;9829;48.142;16.382;2022-07-06T10:35:10;36.10;72.60
19387;DHT22;9829;48.142;16.382;2022-07-06T10:37:37;35.50;73.90
19387;DHT22;9829;48.142;16.382;2022-07-06T10:40:05;35.10;75.20
19387;DHT22;9829;48.142;16.382;2022-07-06T10:42:57;34.60;76.30
19387;DHT22;9829;48.142;16.382;2022-07-06T10:45:52;34.10;75.00
19387;DHT22;9829;48.142;16.382;2022-07-06T10:48:20;33.40;74.50
19387;DHT22;9829;48.142;16.382;2022-07-06T10:50:51;33.00;75.70
19387;DHT22;9829;48.142;16.382;2022-07-06T10:53:21;32.60;76.90
19387;DHT22;9829;48.142;16.382;2022-07-06T10:55:50;32.20;77.80
19387;DHT22;9829;48.142;16.382;2022-07-06T10:58:40;31.70;80.30
19387;DHT22;9829;48.142;16.382;2022-07-06T11:01:08;30.70;82.10
19387;DHT22;9829;48.142;16.382;2022-07-06T11:03:40;29.90;86.60
19387;DHT22;9829;48.142;16.382;2022-07-06T11:06:09;28.70;97.30
19387;DHT22;9829;48.142;16.382;2022-07-06T11:08:52;27.40;98.90
19387;DHT22;9829;48.142;16.382;2022-07-06T11:11:21;26.10;99.90
19387;DHT22;9829;48.142;16.382;2022-07-06T11:13:55;25.00;99.90
19387;DHT22;9829;48.142;16.382;2022-07-06T11:16:24;24.20;99.90
19387;DHT22;9829;48.142;16.382;2022-07-06T11:19:01;23.70;99.90
19387;DHT22;9829;48.142;16.382;2022-07-06T11:21:45;23.40;99.90
19387;DHT22;9829;48.142;16.382;2022-07-06T11:24:14;23.00;99.90
19387;DHT22;9829;48.142;16.382;2022-07-06T11:26:43;22.90;99.90
19387;DHT22;9829;48.142;16.382;2022-07-06T11:29:14;22.60;99.90
19387;DHT22;9829;48.142;16.382;2022-07-06T11:31:42;22.50;99.90
19387;DHT22;9829;48.142;16.382;2022-07-06T11:34:10;22.80;99.90
19387;DHT22;9829;48.142;16.382;2022-07-06T11:36:38;23.50;99.90
19387;DHT22;9829;48.142;16.382;2022-07-06T11:39:06;24.30;99.90
19387;DHT22;9829;48.142;16.382;2022-07-06T11:41:34;25.10;99.90
19387;DHT22;9829;48.142;16.382;2022-07-06T11:44:02;25.90;99.90
19387;DHT22;9829;48.142;16.382;2022-07-06T11:46:32;26.60;99.90
19387;DHT22;9829;48.142;16.382;2022-07-06T11:49:01;26.90;99.90
19387;DHT22;9829;48.142;16.382;2022-07-06T11:51:30;27.00;99.90
19387;DHT22;9829;48.142;16.382;2022-07-06T11:53:59;27.30;99.90
19387;DHT22;9829;48.142;16.382;2022-07-06T11:56:27;27.60;99.90
19387;DHT22;9829;48.142;16.382;2022-07-06T11:58:55;27.60;99.90
19387;DHT22;9829;48.142;16.382;2022-07-06T12:01:23;27.60;99.90
19387;DHT22;9829;48.142;16.382;2022-07-06T12:03:52;27.50;99.90
19387;DHT22;9829;48.142;16.382;2022-07-06T12:06:20;27.30;99.90
19387;DHT22;9829;48.142;16.382;2022-07-06T12:08:48;27.10;99.90
19387;DHT22;9829;48.142;16.382;2022-07-06T12:11:23;26.90;99.90
19387;DHT22;9829;48.142;16.382;2022-07-06T12:13:50;26.60;99.90
19387;DHT22;9829;48.142;16.382;2022-07-06T12:16:18;26.50;99.90
19387;DHT22;9829;48.142;16.382;2022-07-06T12:18:47;26.60;99.90
19387;DHT22;9829;48.142;16.382;2022-07-06T12:21:18;26.70;99.90
19387;DHT22;9829;48.142;16.382;2022-07-06T12:23:48;26.60;99.90
19387;DHT22;9829;48.142;16.382;2022-07-06T12:26:18;26.70;99.90
19387;DHT22;9829;48.142;16.382;2022-07-06T12:28:45;26.70;99.90
19387;DHT22;9829;48.142;16.382;2022-07-06T12:31:31;26.70;99.90
19387;DHT22;9829;48.142;16.382;2022-07-06T12:33:58;26.80;99.90
19387;DHT22;9829;48.142;16.382;2022-07-06T12:36:26;26.90;99.90
19387;DHT22;9829;48.142;16.382;2022-07-06T12:38:53;27.10;99.90
19387;DHT22;9829;48.142;16.382;2022-07-06T12:41:28;27.10;99.90
19387;DHT22;9829;48.142;16.382;2022-07-06T12:44:08;27.10;99.90
19387;DHT22;9829;48.142;16.382;2022-07-06T12:46:36;27.20;99.90
19387;DHT22;9829;48.142;16.382;2022-07-06T12:49:13;27.40;99.90
19387;DHT22;9829;48.142;16.382;2022-07-06T12:51:52;27.30;99.90
19387;DHT22;9829;48.142;16.382;2022-07-06T12:54:20;27.30;99.90
19387;DHT22;9829;48.142;16.382;2022-07-06T12:56:58;27.80;99.90
19387;DHT22;9829;48.142;16.382;2022-07-06T12:59:25;28.10;99.90
19387;DHT22;9829;48.142;16.382;2022-07-06T13:01:52;28.30;99.90
19387;DHT22;9829;48.142;16.382;2022-07-06T13:04:21;28.30;99.90
19387;DHT22;9829;48.142;16.382;2022-07-06T13:06:48;28.20;99.90
19387;DHT22;9829;48.142;16.382;2022-07-06T13:09:16;28.30;99.90
19387;DHT22;9829;48.142;16.382;2022-07-06T13:11:44;28.30;99.90
19387;DHT22;9829;48.142;16.382;2022-07-06T13:14:11;28.40;99.90
19387;DHT22;9829;48.142;16.382;2022-07-06T13:16:38;28.70;99.90
19387;DHT22;9829;48.142;16.382;2022-07-06T13:19:05;29.00;99.90
19387;DHT22;9829;48.142;16.382;2022-07-06T13:21:32;29.50;99.90
19387;DHT22;9829;48.142;16.382;2022-07-06T13:23:59;29.80;99.90
19387;DHT22;9829;48.142;16.382;2022-07-06T13:26:28;30.00;99.80
19387;DHT22;9829;48.142;16.382;2022-07-06T13:28:58;30.20;99.70
19387;DHT22;9829;48.142;16.382;2022-07-06T13:31:26;30.20;98.40
19387;DHT22;9829;48.142;16.382;2022-07-06T13:33:52;30.20;99.10
19387;DHT22;9829;48.142;16.382;2022-07-06T13:36:19;30.20;97.10
19387;DHT22;9829;48.142;16.382;2022-07-06T13:38:47;30.10;97.10
19387;DHT22;9829;48.142;16.382;2022-07-06T13:41:13;30.00;98.70
19387;DHT22;9829;48.142;16.382;2022-07-06T13:43:42;29.90;97.50
19387;DHT22;9829;48.142;16.382;2022-07-06T13:46:08;29.60;96.00
19387;DHT22;9829;48.142;16.382;2022-07-06T13:48:36;29.30;95.80
19387;DHT22;9829;48.142;16.382;2022-07-06T13:51:04;29.00;94.60
19387;DHT22;9829;48.142;16.382;2022-07-06T13:53:31;28.70;94.90
19387;DHT22;9829;48.142;16.382;2022-07-06T13:55:58;28.40;95.00
19387;DHT22;9829;48.142;16.382;2022-07-06T13:58:25;28.20;96.10
19387;DHT22;9829;48.142;16.382;2022-07-06T14:00:53;28.20;96.00
19387;DHT22;9829;48.142;16.382;2022-07-06T14:03:20;28.10;95.70
19387;DHT22;9829;48.142;16.382;2022-07-06T14:05:53;28.30;96.60
19387;DHT22;9829;48.142;16.382;2022-07-06T14:08:21;28.40;96.70
19387;DHT22;9829;48.142;16.382;2022-07-06T14:10:48;28.50;96.40
19387;DHT22;9829;48.142;16.382;2022-07-06T14:13:15;28.60;94.30
19387;DHT22;9829;48.142;16.382;2022-07-06T14:15:42;28.60;95.40
19387;DHT22;9829;48.142;16.382;2022-07-06T14:18:11;28.60;95.20
19387;DHT22;9829;48.142;16.382;2022-07-06T14:20:38;28.70;94.60
19387;DHT22;9829;48.142;16.382;2022-07-06T14:23:05;28.80;93.90
19387;DHT22;9829;48.142;16.382;2022-07-06T14:25:32;28.80;94.30
19387;DHT22;9829;48.142;16.382;2022-07-06T14:27:58;28.80;94.70
19387;DHT22;9829;48.142;16.382;2022-07-06T14:30:25;28.70;93.70
19387;DHT22;9829;48.142;16.382;2022-07-06T14:32:53;28.60;94.60
19387;DHT22;9829;48.142;16.382;2022-07-06T14:35:21;28.60;94.70
19387;DHT22;9829;48.142;16.382;2022-07-06T14:37:50;28.50;95.80
19387;DHT22;9829;48.142;16.382;2022-07-06T14:40:17;28.30;95.30
19387;DHT22;9829;48.142;16.382;2022-07-06T14:42:44;28.20;95.80
19387;DHT22;9829;48.142;16.382;2022-07-06T14:45:11;27.90;97.30
19387;DHT22;9829;48.142;16.382;2022-07-06T14:47:37;27.70;96.40
19387;DHT22;9829;48.142;16.382;2022-07-06T14:50:05;27.40;96.90
19387;DHT22;9829;48.142;16.382;2022-07-06T14:52:33;27.20;97.30
19387;DHT22;9829;48.142;16.382;2022-07-06T14:55:00;26.90;98.30
19387;DHT22;9829;48.142;16.382;2022-07-06T14:57:27;26.70;98.80
19387;DHT22;9829;48.142;16.382;2022-07-06T14:59:54;26.30;99.70
19387;DHT22;9829;48.142;16.382;2022-07-06T15:02:21;26.10;99.50
19387;DHT22;9829;48.142;16.382;2022-07-06T15:04:48;25.80;99.90
19387;DHT22;9829;48.142;16.382;2022-07-06T15:07:14;25.70;99.90
19387;DHT22;9829;48.142;16.382;2022-07-06T15:09:43;25.30;99.90
19387;DHT22;9829;48.142;16.382;2022-07-06T15:12:10;25.00;99.90
19387;DHT22;9829;48.142;16.382;2022-07-06T15:14:37;24.90;99.90
19387;DHT22;9829;48.142;16.382;2022-07-06T15:17:04;25.00;99.90
19387;DHT22;9829;48.142;16.382;2022-07-06T15:19:32;25.20;99.90
19387;DHT22;9829;48.142;16.382;2022-07-06T15:21:58;25.40;99.90
19387;DHT22;9829;48.142;16.382;2022-07-06T15:24:26;25.70;99.90
19387;DHT22;9829;48.142;16.382;2022-07-06T15:26:54;25.90;99.90
19387;DHT22;9829;48.142;16.382;2022-07-06T15:29:21;26.30;99.90
19387;DHT22;9829;48.142;16.382;2022-07-06T15:31:48;26.60;99.90
19387;DHT22;9829;48.142;16.382;2022-07-06T15:34:15;26.80;99.90
19387;DHT22;9829;48.142;16.382;2022-07-06T15:36:42;27.00;99.90